sensor_id;sensor_type;location;lat;lon;timestamp;temperature;humidity
69546;SHT31;56766;52.260;20.746;2023-01-10T00:01:39;7.13;89.19
69546;SHT31;56766;52.260;20.746;2023-01-10T00:04:06;7.15;89.13
69546;SHT31;56766;52.260;20.746;2023-01-10T00:06:33;7.13;89.18
69546;SHT31;56766;52.260;20.746;2023-01-10T00:08:59;7.15;89.22
69546;SHT31;56766;52.260;20.746;2023-01-10T00:11:26;7.15;89.21
69546;SHT31;56766;52.260;20.746;2023-01-10T00:14:11;7.13;89.15
69546;SHT31;56766;52.260;20.746;2023-01-10T00:16:39;7.14;89.20
69546;SHT31;56766;52.260;20.746;2023-01-10T00:19:08;7.14;89.14
69546;SHT31;56766;52.260;20.746;2023-01-10T00:21:36;7.14;89.20
69546;SHT31;56766;52.260;20.746;2023-01-10T00:24:05;7.16;89.18
69546;SHT31;56766;52.260;20.746;2023-01-10T00:26:45;7.18;89.20
69546;SHT31;56766;52.260;20.746;2023-01-10T00:29:28;7.19;89.20
69546;SHT31;56766;52.260;20.746;2023-01-10T00:32:00;7.18;89.10
69546;SHT31;56766;52.260;20.746;2023-01-10T00:34:26;7.16;89.10
69546;SHT31;56766;52.260;20.746;2023-01-10T00:36:53;7.13;89.16
69546;SHT31;56766;52.260;20.746;2023-01-10T00:39:20;7.12;89.21
69546;SHT31;56766;52.260;20.746;2023-01-10T00:41:46;7.12;89.29
69546;SHT31;56766;52.260;20.746;2023-01-10T00:44:32;7.15;89.36
69546;SHT31;56766;52.260;20.746;2023-01-10T00:46:59;7.19;89.28
69546;SHT31;56766;52.260;20.746;2023-01-10T00:49:26;7.19;89.24
69546;SHT31;56766;52.260;20.746;2023-01-10T00:51:53;7.16;89.20
69546;SHT31;56766;52.260;20.746;2023-01-10T00:54:23;7.15;89.30
69546;SHT31;56766;52.260;20.746;2023-01-10T00:56:50;7.18;89.37
69546;SHT31;56766;52.260;20.746;2023-01-10T00:59:17;7.21;89.22
69546;SHT31;56766;52.260;20.746;2023-01-10T01:01:44;7.18;89.18
69546;SHT31;56766;52.260;20.746;2023-01-10T01:04:10;7.20;89.30
69546;SHT31;56766;52.260;20.746;2023-01-10T01:06:37;7.23;89.30
69546;SHT31;56766;52.260;20.746;2023-01-10T01:09:04;7.26;89.29
69546;SHT31;56766;52.260;20.746;2023-01-10T01:11:31;7.30;89.19
69546;SHT31;56766;52.260;20.746;2023-01-10T01:13:57;7.32;89.07
69546;SHT31;56766;52.260;20.746;2023-01-10T01:16:24;7.30;88.97
69546;SHT31;56766;52.260;20.746;2023-01-10T01:18:51;7.32;89.10
69546;SHT31;56766;52.260;20.746;2023-01-10T01:21:18;7.35;89.02
69546;SHT31;56766;52.260;20.746;2023-01-10T01:23:46;7.36;89.00
69546;SHT31;56766;52.260;20.746;2023-01-10T01:26:12;7.39;88.97
69546;SHT31;56766;52.260;20.746;2023-01-10T01:28:39;7.40;88.90
69546;SHT31;56766;52.260;20.746;2023-01-10T01:31:07;7.39;88.90
69546;SHT31;56766;52.260;20.746;2023-01-10T01:33:35;7.40;88.96
69546;SHT31;56766;52.260;20.746;2023-01-10T01:36:07;7.43;88.90
69546;SHT31;56766;52.260;20.746;2023-01-10T01:38:37;7.46;88.93
69546;SHT31;56766;52.260;20.746;2023-01-10T01:41:05;7.50;88.87
69546;SHT31;56766;52.260;20.746;2023-01-10T01:44:05;7.49;88.68
69546;SHT31;56766;52.260;20.746;2023-01-10T01:49:31;7.49;88.66
69546;SHT31;56766;52.260;20.746;2023-01-10T01:52:31;7.50;88.68
69546;SHT31;56766;52.260;20.746;2023-01-10T01:55:04;7.57;88.66
69546;SHT31;56766;52.260;20.746;2023-01-10T01:57:33;7.60;88.45
69546;SHT31;56766;52.260;20.746;2023-01-10T02:00:03;7.60;88.40
69546;SHT31;56766;52.260;20.746;2023-01-10T02:02:37;7.58;88.33
69546;SHT31;56766;52.260;20.746;2023-01-10T02:05:10;7.56;88.48
69546;SHT31;56766;52.260;20.746;2023-01-10T02:07:44;7.55;88.50
69546;SHT31;56766;52.260;20.746;2023-01-10T02:13:02;7.57;88.53
69546;SHT31;56766;52.260;20.746;2023-01-10T02:15:31;7.57;88.41
69546;SHT31;56766;52.260;20.746;2023-01-10T02:18:01;7.58;88.36
69546;SHT31;56766;52.260;20.746;2023-01-10T02:27:02;7.47;88.55
69546;SHT31;56766;52.260;20.746;2023-01-10T02:33:22;7.49;88.32
69546;SHT31;56766;52.260;20.746;2023-01-10T02:35:44;7.46;88.44
69546;SHT31;56766;52.260;20.746;2023-01-10T02:38:28;7.45;88.56
69546;SHT31;56766;52.260;20.746;2023-01-10T02:44:13;7.53;88.47
69546;SHT31;56766;52.260;20.746;2023-01-10T02:46:47;7.54;88.27
69546;SHT31;56766;52.260;20.746;2023-01-10T02:49:15;7.47;88.19
69546;SHT31;56766;52.260;20.746;2023-01-10T02:51:42;7.42;88.33
69546;SHT31;56766;52.260;20.746;2023-01-10T02:54:17;7.39;88.42
69546;SHT31;56766;52.260;20.746;2023-01-10T03:00:16;7.32;88.49
69546;SHT31;56766;52.260;20.746;2023-01-10T03:03:06;7.29;88.50
69546;SHT31;56766;52.260;20.746;2023-01-10T03:06:00;7.26;88.60
69546;SHT31;56766;52.260;20.746;2023-01-10T03:08:46;7.26;88.70
69546;SHT31;56766;52.260;20.746;2023-01-10T03:11:36;7.24;88.59
69546;SHT31;56766;52.260;20.746;2023-01-10T03:14:16;7.20;88.67
69546;SHT31;56766;52.260;20.746;2023-01-10T03:16:57;7.19;88.70
69546;SHT31;56766;52.260;20.746;2023-01-10T03:19:34;7.16;88.70
69546;SHT31;56766;52.260;20.746;2023-01-10T03:22:08;7.15;88.80
69546;SHT31;56766;52.260;20.746;2023-01-10T03:24:43;7.12;88.76
69546;SHT31;56766;52.260;20.746;2023-01-10T03:32:41;7.03;88.88
69546;SHT31;56766;52.260;20.746;2023-01-10T03:35:11;7.05;88.97
69546;SHT31;56766;52.260;20.746;2023-01-10T03:38:05;7.06;88.94
69546;SHT31;56766;52.260;20.746;2023-01-10T03:49:28;6.95;88.96
69546;SHT31;56766;52.260;20.746;2023-01-10T03:51:57;6.96;88.91
69546;SHT31;56766;52.260;20.746;2023-01-10T03:54:24;6.94;88.92
69546;SHT31;56766;52.260;20.746;2023-01-10T03:56:51;6.93;88.99
69546;SHT31;56766;52.260;20.746;2023-01-10T03:59:24;6.92;89.04
69546;SHT31;56766;52.260;20.746;2023-01-10T04:01:54;6.93;89.06
69546;SHT31;56766;52.260;20.746;2023-01-10T04:04:21;6.90;88.99
69546;SHT31;56766;52.260;20.746;2023-01-10T04:06:48;6.86;89.01
69546;SHT31;56766;52.260;20.746;2023-01-10T04:09:14;6.83;89.12
69546;SHT31;56766;52.260;20.746;2023-01-10T04:11:41;6.84;89.19
69546;SHT31;56766;52.260;20.746;2023-01-10T04:14:08;6.85;89.20
69546;SHT31;56766;52.260;20.746;2023-01-10T04:16:34;6.87;89.16
69546;SHT31;56766;52.260;20.746;2023-01-10T04:19:01;6.87;89.20
69546;SHT31;56766;52.260;20.746;2023-01-10T04:21:28;6.88;89.13
69546;SHT31;56766;52.260;20.746;2023-01-10T04:23:54;6.84;89.08
69546;SHT31;56766;52.260;20.746;2023-01-10T04:26:21;6.82;89.10
69546;SHT31;56766;52.260;20.746;2023-01-10T04:28:48;6.82;89.11
69546;SHT31;56766;52.260;20.746;2023-01-10T04:31:14;6.80;89.15
69546;SHT31;56766;52.260;20.746;2023-01-10T04:33:41;6.80;89.13
69546;SHT31;56766;52.260;20.746;2023-01-10T04:36:08;6.82;89.17
69546;SHT31;56766;52.260;20.746;2023-01-10T04:38:34;6.84;89.12
69546;SHT31;56766;52.260;20.746;2023-01-10T04:41:01;6.86;89.10
69546;SHT31;56766;52.260;20.746;2023-01-10T04:43:28;6.86;89.07
69546;SHT31;56766;52.260;20.746;2023-01-10T04:45:55;6.86;89.08
69546;SHT31;56766;52.260;20.746;2023-01-10T04:48:21;6.89;89.09
69546;SHT31;56766;52.260;20.746;2023-01-10T04:50:49;6.93;89.02
69546;SHT31;56766;52.260;20.746;2023-01-10T04:53:18;6.94;88.94
69546;SHT31;56766;52.260;20.746;2023-01-10T04:55:46;6.93;88.90
69546;SHT31;56766;52.260;20.746;2023-01-10T04:58:12;6.97;88.90
69546;SHT31;56766;52.260;20.746;2023-01-10T05:00:39;7.01;88.85
69546;SHT31;56766;52.260;20.746;2023-01-10T05:03:07;7.03;88.80
69546;SHT31;56766;52.260;20.746;2023-01-10T05:05:34;7.08;88.82
69546;SHT31;56766;52.260;20.746;2023-01-10T05:08:01;7.11;88.78
69546;SHT31;56766;52.260;20.746;2023-01-10T05:10:27;7.14;88.71
69546;SHT31;56766;52.260;20.746;2023-01-10T05:12:54;7.14;88.69
69546;SHT31;56766;52.260;20.746;2023-01-10T05:15:21;7.14;88.70
69546;SHT31;56766;52.260;20.746;2023-01-10T05:17:48;7.15;88.71
69546;SHT31;56766;52.260;20.746;2023-01-10T05:20:16;7.18;88.66
69546;SHT31;56766;52.260;20.746;2023-01-10T05:22:43;7.20;88.60
69546;SHT31;56766;52.260;20.746;2023-01-10T05:25:10;7.19;88.52
69546;SHT31;56766;52.260;20.746;2023-01-10T05:27:40;7.19;88.57
69546;SHT31;56766;52.260;20.746;2023-01-10T05:30:12;7.19;88.61
69546;SHT31;56766;52.260;20.746;2023-01-10T05:32:39;7.21;88.64
69546;SHT31;56766;52.260;20.746;2023-01-10T05:35:06;7.22;88.49
69546;SHT31;56766;52.260;20.746;2023-01-10T05:37:33;7.20;88.40
69546;SHT31;56766;52.260;20.746;2023-01-10T05:40:01;7.20;88.43
69546;SHT31;56766;52.260;20.746;2023-01-10T05:42:28;7.20;88.36
69546;SHT31;56766;52.260;20.746;2023-01-10T05:44:54;7.14;88.29
69546;SHT31;56766;52.260;20.746;2023-01-10T05:47:21;7.11;88.38
69546;SHT31;56766;52.260;20.746;2023-01-10T05:49:48;7.07;88.40
69546;SHT31;56766;52.260;20.746;2023-01-10T05:52:14;7.07;88.47
69546;SHT31;56766;52.260;20.746;2023-01-10T05:54:41;7.08;88.49
69546;SHT31;56766;52.260;20.746;2023-01-10T05:57:08;7.08;88.33
69546;SHT31;56766;52.260;20.746;2023-01-10T05:59:35;7.06;88.31
69546;SHT31;56766;52.260;20.746;2023-01-10T06:02:01;7.03;88.35
69546;SHT31;56766;52.260;20.746;2023-01-10T06:04:28;6.98;88.37
69546;SHT31;56766;52.260;20.746;2023-01-10T06:06:55;6.95;88.39
69546;SHT31;56766;52.260;20.746;2023-01-10T06:09:22;6.94;88.48
69546;SHT31;56766;52.260;20.746;2023-01-10T06:11:48;6.92;88.41
69546;SHT31;56766;52.260;20.746;2023-01-10T06:14:15;6.88;88.40
69546;SHT31;56766;52.260;20.746;2023-01-10T06:16:45;6.83;88.39
69546;SHT31;56766;52.260;20.746;2023-01-10T06:19:13;6.79;88.50
69546;SHT31;56766;52.260;20.746;2023-01-10T06:21:40;6.76;88.47
69546;SHT31;56766;52.260;20.746;2023-01-10T06:24:07;6.72;88.53
69546;SHT31;56766;52.260;20.746;2023-01-10T06:26:34;6.70;88.50
69546;SHT31;56766;52.260;20.746;2023-01-10T06:29:00;6.67;88.58
69546;SHT31;56766;52.260;20.746;2023-01-10T06:31:27;6.65;88.58
69546;SHT31;56766;52.260;20.746;2023-01-10T06:33:54;6.61;88.52
69546;SHT31;56766;52.260;20.746;2023-01-10T06:36:21;6.57;88.64
69546;SHT31;56766;52.260;20.746;2023-01-10T06:38:48;6.55;88.69
69546;SHT31;56766;52.260;20.746;2023-01-10T06:41:14;6.54;88.68
69546;SHT31;56766;52.260;20.746;2023-01-10T06:43:43;6.51;88.63
69546;SHT31;56766;52.260;20.746;2023-01-10T06:46:16;6.51;88.68
69546;SHT31;56766;52.260;20.746;2023-01-10T06:48:45;6.49;88.59
69546;SHT31;56766;52.260;20.746;2023-01-10T06:51:14;6.47;88.59
69546;SHT31;56766;52.260;20.746;2023-01-10T06:53:43;6.44;88.64
69546;SHT31;56766;52.260;20.746;2023-01-10T06:56:10;6.45;88.70
69546;SHT31;56766;52.260;20.746;2023-01-10T06:58:37;6.46;88.70
69546;SHT31;56766;52.260;20.746;2023-01-10T07:01:15;6.48;88.70
69546;SHT31;56766;52.260;20.746;2023-01-10T07:03:44;6.53;88.62
69546;SHT31;56766;52.260;20.746;2023-01-10T07:06:11;6.51;88.51
69546;SHT31;56766;52.260;20.746;2023-01-10T07:08:40;6.54;88.55
69546;SHT31;56766;52.260;20.746;2023-01-10T07:11:10;6.53;88.43
69546;SHT31;56766;52.260;20.746;2023-01-10T07:13:38;6.50;88.33
69546;SHT31;56766;52.260;20.746;2023-01-10T07:16:11;6.46;88.37
69546;SHT31;56766;52.260;20.746;2023-01-10T07:18:42;6.43;88.36
69546;SHT31;56766;52.260;20.746;2023-01-10T07:21:09;6.43;88.41
69546;SHT31;56766;52.260;20.746;2023-01-10T07:23:36;6.43;88.42
69546;SHT31;56766;52.260;20.746;2023-01-10T07:26:06;6.43;88.41
69546;SHT31;56766;52.260;20.746;2023-01-10T07:28:36;6.41;88.24
69546;SHT31;56766;52.260;20.746;2023-01-10T07:31:04;6.38;88.27
69546;SHT31;56766;52.260;20.746;2023-01-10T07:33:31;6.35;88.29
69546;SHT31;56766;52.260;20.746;2023-01-10T07:36:00;6.34;88.29
69546;SHT31;56766;52.260;20.746;2023-01-10T07:38:27;6.34;88.30
69546;SHT31;56766;52.260;20.746;2023-01-10T07:40:55;6.35;88.21
69546;SHT31;56766;52.260;20.746;2023-01-10T07:43:22;6.33;88.11
69546;SHT31;56766;52.260;20.746;2023-01-10T07:45:48;6.32;88.20
69546;SHT31;56766;52.260;20.746;2023-01-10T07:48:15;6.32;88.08
69546;SHT31;56766;52.260;20.746;2023-01-10T07:50:42;6.27;87.97
69546;SHT31;56766;52.260;20.746;2023-01-10T07:53:08;6.25;88.07
69546;SHT31;56766;52.260;20.746;2023-01-10T07:55:36;6.26;88.07
69546;SHT31;56766;52.260;20.746;2023-01-10T07:58:06;6.27;87.99
69546;SHT31;56766;52.260;20.746;2023-01-10T08:00:34;6.23;87.95
69546;SHT31;56766;52.260;20.746;2023-01-10T08:03:01;6.20;87.87
69546;SHT31;56766;52.260;20.746;2023-01-10T08:05:27;6.20;87.92
69546;SHT31;56766;52.260;20.746;2023-01-10T08:07:54;6.21;88.01
69546;SHT31;56766;52.260;20.746;2023-01-10T08:10:26;6.22;87.85
69546;SHT31;56766;52.260;20.746;2023-01-10T08:12:53;6.23;87.96
69546;SHT31;56766;52.260;20.746;2023-01-10T08:15:20;6.30;87.99
69546;SHT31;56766;52.260;20.746;2023-01-10T08:17:46;6.33;87.85
69546;SHT31;56766;52.260;20.746;2023-01-10T08:20:13;6.35;87.73
69546;SHT31;56766;52.260;20.746;2023-01-10T08:22:41;6.38;87.76
69546;SHT31;56766;52.260;20.746;2023-01-10T08:25:08;6.36;87.47
69546;SHT31;56766;52.260;20.746;2023-01-10T08:27:36;6.36;87.55
69546;SHT31;56766;52.260;20.746;2023-01-10T08:30:04;6.37;87.51
69546;SHT31;56766;52.260;20.746;2023-01-10T08:32:31;6.34;87.38
69546;SHT31;56766;52.260;20.746;2023-01-10T08:34:58;6.33;87.46
69546;SHT31;56766;52.260;20.746;2023-01-10T08:37:25;6.34;87.50
69546;SHT31;56766;52.260;20.746;2023-01-10T08:39:52;6.33;87.49
69546;SHT31;56766;52.260;20.746;2023-01-10T08:42:19;6.34;87.45
69546;SHT31;56766;52.260;20.746;2023-01-10T08:44:46;6.34;87.50
69546;SHT31;56766;52.260;20.746;2023-01-10T08:47:13;6.35;87.39
69546;SHT31;56766;52.260;20.746;2023-01-10T08:49:40;6.36;87.31
69546;SHT31;56766;52.260;20.746;2023-01-10T08:52:07;6.35;87.15
69546;SHT31;56766;52.260;20.746;2023-01-10T08:54:34;6.34;87.14
69546;SHT31;56766;52.260;20.746;2023-01-10T08:57:00;6.34;87.14
69546;SHT31;56766;52.260;20.746;2023-01-10T08:59:27;6.33;87.06
69546;SHT31;56766;52.260;20.746;2023-01-10T09:01:54;6.34;87.15
69546;SHT31;56766;52.260;20.746;2023-01-10T09:04:24;6.36;87.25
69546;SHT31;56766;52.260;20.746;2023-01-10T09:06:52;6.42;87.20
69546;SHT31;56766;52.260;20.746;2023-01-10T09:09:19;6.43;87.01
69546;SHT31;56766;52.260;20.746;2023-01-10T09:11:46;6.44;86.84
69546;SHT31;56766;52.260;20.746;2023-01-10T09:14:14;6.48;86.90
69546;SHT31;56766;52.260;20.746;2023-01-10T09:16:40;6.50;86.80
69546;SHT31;56766;52.260;20.746;2023-01-10T09:19:07;6.51;86.83
69546;SHT31;56766;52.260;20.746;2023-01-10T09:21:34;6.54;86.91
69546;SHT31;56766;52.260;20.746;2023-01-10T09:24:00;6.58;86.77
69546;SHT31;56766;52.260;20.746;2023-01-10T09:26:28;6.58;86.49
69546;SHT31;56766;52.260;20.746;2023-01-10T09:28:55;6.57;86.49
69546;SHT31;56766;52.260;20.746;2023-01-10T09:31:22;6.59;86.60
69546;SHT31;56766;52.260;20.746;2023-01-10T09:33:49;6.62;86.55
69546;SHT31;56766;52.260;20.746;2023-01-10T09:36:15;6.63;86.46
69546;SHT31;56766;52.260;20.746;2023-01-10T09:38:43;6.64;86.41
69546;SHT31;56766;52.260;20.746;2023-01-10T09:48:05;6.83;86.19
69546;SHT31;56766;52.260;20.746;2023-01-10T09:53:32;6.94;86.09
69546;SHT31;56766;52.260;20.746;2023-01-10T09:56:02;6.92;85.74
69546;SHT31;56766;52.260;20.746;2023-01-10T09:58:35;6.93;85.96
69546;SHT31;56766;52.260;20.746;2023-01-10T10:04:01;6.94;85.62
69546;SHT31;56766;52.260;20.746;2023-01-10T10:06:52;6.94;85.59
69546;SHT31;56766;52.260;20.746;2023-01-10T10:09:25;6.93;85.58
69546;SHT31;56766;52.260;20.746;2023-01-10T10:12:22;6.94;85.65
69546;SHT31;56766;52.260;20.746;2023-01-10T10:15:29;6.96;85.54
69546;SHT31;56766;52.260;20.746;2023-01-10T10:21:18;7.00;85.58
69546;SHT31;56766;52.260;20.746;2023-01-10T10:35:37;7.25;85.14
69546;SHT31;56766;52.260;20.746;2023-01-10T10:38:24;7.30;85.00
69546;SHT31;56766;52.260;20.746;2023-01-10T10:41:16;7.38;84.83
69546;SHT31;56766;52.260;20.746;2023-01-10T10:43:58;7.46;84.81
69546;SHT31;56766;52.260;20.746;2023-01-10T10:46:31;7.56;84.76
69546;SHT31;56766;52.260;20.746;2023-01-10T10:49:21;7.62;84.61
69546;SHT31;56766;52.260;20.746;2023-01-10T10:52:28;7.66;84.49
69546;SHT31;56766;52.260;20.746;2023-01-10T10:54:58;7.67;84.22
69546;SHT31;56766;52.260;20.746;2023-01-10T10:57:27;7.67;84.10
69546;SHT31;56766;52.260;20.746;2023-01-10T10:59:59;7.66;84.03
69546;SHT31;56766;52.260;20.746;2023-01-10T11:02:39;7.66;84.21
69546;SHT31;56766;52.260;20.746;2023-01-10T11:05:19;7.68;84.25
69546;SHT31;56766;52.260;20.746;2023-01-10T11:07:59;7.66;83.98
69546;SHT31;56766;52.260;20.746;2023-01-10T11:10:39;7.55;83.93
69546;SHT31;56766;52.260;20.746;2023-01-10T11:13:14;7.45;83.94
69546;SHT31;56766;52.260;20.746;2023-01-10T11:15:51;7.37;84.12
69546;SHT31;56766;52.260;20.746;2023-01-10T11:18:21;7.33;84.36
69546;SHT31;56766;52.260;20.746;2023-01-10T11:20:54;7.32;84.42
69546;SHT31;56766;52.260;20.746;2023-01-10T11:23:42;7.34;84.40
69546;SHT31;56766;52.260;20.746;2023-01-10T11:29:16;7.30;84.36
69546;SHT31;56766;52.260;20.746;2023-01-10T11:31:48;7.28;84.32
69546;SHT31;56766;52.260;20.746;2023-01-10T11:34:30;7.25;84.22
69546;SHT31;56766;52.260;20.746;2023-01-10T11:37:04;7.25;84.37
69546;SHT31;56766;52.260;20.746;2023-01-10T11:39:43;7.24;84.31
69546;SHT31;56766;52.260;20.746;2023-01-10T11:44:49;7.28;84.49
69546;SHT31;56766;52.260;20.746;2023-01-10T11:47:17;7.32;84.52
69546;SHT31;56766;52.260;20.746;2023-01-10T11:49:48;7.32;84.49
69546;SHT31;56766;52.260;20.746;2023-01-10T11:52:19;7.34;84.45
69546;SHT31;56766;52.260;20.746;2023-01-10T11:54:50;7.34;84.24
69546;SHT31;56766;52.260;20.746;2023-01-10T11:57:27;7.35;84.23
69546;SHT31;56766;52.260;20.746;2023-01-10T12:00:00;7.40;84.30
69546;SHT31;56766;52.260;20.746;2023-01-10T12:02:52;7.40;84.02
69546;SHT31;56766;52.260;20.746;2023-01-10T12:05:21;7.43;84.07
69546;SHT31;56766;52.260;20.746;2023-01-10T12:07:56;7.50;84.03
69546;SHT31;56766;52.260;20.746;2023-01-10T12:10:35;7.60;83.91
69546;SHT31;56766;52.260;20.746;2023-01-10T12:13:29;7.69;83.80
69546;SHT31;56766;52.260;20.746;2023-01-10T12:16:27;7.74;83.63
69546;SHT31;56766;52.260;20.746;2023-01-10T12:18:59;7.75;83.61
69546;SHT31;56766;52.260;20.746;2023-01-10T12:24:37;7.64;83.50
69546;SHT31;56766;52.260;20.746;2023-01-10T12:27:15;7.59;83.49
69546;SHT31;56766;52.260;20.746;2023-01-10T12:30:15;7.49;83.31
69546;SHT31;56766;52.260;20.746;2023-01-10T12:32:49;7.40;83.45
69546;SHT31;56766;52.260;20.746;2023-01-10T12:35:42;7.38;83.75
69546;SHT31;56766;52.260;20.746;2023-01-10T12:38:38;7.41;83.83
69546;SHT31;56766;52.260;20.746;2023-01-10T12:44:39;7.41;83.59
69546;SHT31;56766;52.260;20.746;2023-01-10T12:50:27;7.45;83.58
69546;SHT31;56766;52.260;20.746;2023-01-10T12:55:45;7.46;83.49
69546;SHT31;56766;52.260;20.746;2023-01-10T13:01:14;7.47;83.48
69546;SHT31;56766;52.260;20.746;2023-01-10T13:03:45;7.47;83.19
69546;SHT31;56766;52.260;20.746;2023-01-10T13:06:36;7.40;82.87
69546;SHT31;56766;52.260;20.746;2023-01-10T13:09:18;7.33;82.76
69546;SHT31;56766;52.260;20.746;2023-01-10T13:12:21;7.30;83.00
69546;SHT31;56766;52.260;20.746;2023-01-10T13:17:42;7.32;82.96
69546;SHT31;56766;52.260;20.746;2023-01-10T13:23:00;7.23;82.50
69546;SHT31;56766;52.260;20.746;2023-01-10T13:25:33;7.20;82.93
69546;SHT31;56766;52.260;20.746;2023-01-10T13:28:07;7.23;83.22
69546;SHT31;56766;52.260;20.746;2023-01-10T13:30:51;7.22;82.80
69546;SHT31;56766;52.260;20.746;2023-01-10T13:33:29;7.22;82.81
69546;SHT31;56766;52.260;20.746;2023-01-10T13:36:24;7.21;82.87
69546;SHT31;56766;52.260;20.746;2023-01-10T13:38:56;7.18;82.77
69546;SHT31;56766;52.260;20.746;2023-01-10T13:58:18;6.90;83.11
69546;SHT31;56766;52.260;20.746;2023-01-10T14:01:35;6.84;83.15
69546;SHT31;56766;52.260;20.746;2023-01-10T14:04:38;6.81;83.33
69546;SHT31;56766;52.260;20.746;2023-01-10T14:07:32;6.78;83.29
69546;SHT31;56766;52.260;20.746;2023-01-10T14:10:24;6.74;83.49
69546;SHT31;56766;52.260;20.746;2023-01-10T14:13:03;6.74;83.70
69546;SHT31;56766;52.260;20.746;2023-01-10T14:15:40;6.72;83.65
69546;SHT31;56766;52.260;20.746;2023-01-10T14:18:21;6.68;83.72
69546;SHT31;56766;52.260;20.746;2023-01-10T14:23:38;6.56;83.56
69546;SHT31;56766;52.260;20.746;2023-01-10T14:26:33;6.51;83.64
69546;SHT31;56766;52.260;20.746;2023-01-10T14:29:14;6.46;83.69
69546;SHT31;56766;52.260;20.746;2023-01-10T14:31:46;6.44;83.83
69546;SHT31;56766;52.260;20.746;2023-01-10T14:34:24;6.39;83.72
69546;SHT31;56766;52.260;20.746;2023-01-10T14:37:12;6.33;83.86
69546;SHT31;56766;52.260;20.746;2023-01-10T14:39:51;6.32;83.93
69546;SHT31;56766;52.260;20.746;2023-01-10T14:42:23;6.29;83.93
69546;SHT31;56766;52.260;20.746;2023-01-10T14:45:25;6.25;83.92
69546;SHT31;56766;52.260;20.746;2023-01-10T14:47:56;6.18;84.03
69546;SHT31;56766;52.260;20.746;2023-01-10T14:50:25;6.12;84.10
69546;SHT31;56766;52.260;20.746;2023-01-10T14:52:58;6.06;84.19
69546;SHT31;56766;52.260;20.746;2023-01-10T14:55:25;6.03;84.29
69546;SHT31;56766;52.260;20.746;2023-01-10T15:00:28;5.95;84.29
69546;SHT31;56766;52.260;20.746;2023-01-10T15:02:59;5.91;84.40
69546;SHT31;56766;52.260;20.746;2023-01-10T15:05:32;5.86;84.47
69546;SHT31;56766;52.260;20.746;2023-01-10T15:10:59;5.85;84.58
69546;SHT31;56766;52.260;20.746;2023-01-10T15:13:39;5.82;84.61
69546;SHT31;56766;52.260;20.746;2023-01-10T15:16:19;5.80;84.69
69546;SHT31;56766;52.260;20.746;2023-01-10T15:18:49;5.76;84.75
69546;SHT31;56766;52.260;20.746;2023-01-10T15:21:17;5.70;84.88
69546;SHT31;56766;52.260;20.746;2023-01-10T15:23:47;5.64;85.02
69546;SHT31;56766;52.260;20.746;2023-01-10T15:26:19;5.60;85.15
69546;SHT31;56766;52.260;20.746;2023-01-10T15:29:12;5.58;85.27
69546;SHT31;56766;52.260;20.746;2023-01-10T15:31:52;5.57;85.37
69546;SHT31;56766;52.260;20.746;2023-01-10T15:34:28;5.60;85.46
69546;SHT31;56766;52.260;20.746;2023-01-10T15:36:59;5.61;85.40
69546;SHT31;56766;52.260;20.746;2023-01-10T15:39:31;5.60;85.40
69546;SHT31;56766;52.260;20.746;2023-01-10T15:42:06;5.57;85.46
69546;SHT31;56766;52.260;20.746;2023-01-10T15:44:39;5.53;85.56
69546;SHT31;56766;52.260;20.746;2023-01-10T15:50:24;5.52;85.77
69546;SHT31;56766;52.260;20.746;2023-01-10T15:52:57;5.52;85.74
69546;SHT31;56766;52.260;20.746;2023-01-10T15:58:29;5.48;85.86
69546;SHT31;56766;52.260;20.746;2023-01-10T16:01:03;5.47;85.90
69546;SHT31;56766;52.260;20.746;2023-01-10T16:06:05;5.41;86.08
69546;SHT31;56766;52.260;20.746;2023-01-10T16:08:37;5.39;86.10
69546;SHT31;56766;52.260;20.746;2023-01-10T16:11:18;5.39;86.18
69546;SHT31;56766;52.260;20.746;2023-01-10T16:14:08;5.39;86.10
69546;SHT31;56766;52.260;20.746;2023-01-10T16:16:35;5.37;86.11
69546;SHT31;56766;52.260;20.746;2023-01-10T16:19:02;5.34;86.20
69546;SHT31;56766;52.260;20.746;2023-01-10T16:21:35;5.32;86.20
69546;SHT31;56766;52.260;20.746;2023-01-10T16:24:06;5.31;86.20
69546;SHT31;56766;52.260;20.746;2023-01-10T16:26:41;5.29;86.20
69546;SHT31;56766;52.260;20.746;2023-01-10T16:29:09;5.27;86.20
69546;SHT31;56766;52.260;20.746;2023-01-10T16:31:37;5.24;86.19
69546;SHT31;56766;52.260;20.746;2023-01-10T16:34:06;5.18;86.20
69546;SHT31;56766;52.260;20.746;2023-01-10T16:36:34;5.15;86.27
69546;SHT31;56766;52.260;20.746;2023-01-10T16:39:07;5.10;86.28
69546;SHT31;56766;52.260;20.746;2023-01-10T16:41:41;5.08;86.29
69546;SHT31;56766;52.260;20.746;2023-01-10T16:44:29;5.06;86.23
69546;SHT31;56766;52.260;20.746;2023-01-10T16:46:58;5.03;86.20
69546;SHT31;56766;52.260;20.746;2023-01-10T16:49:27;5.00;86.20
69546;SHT31;56766;52.260;20.746;2023-01-10T16:51:54;4.97;86.20
69546;SHT31;56766;52.260;20.746;2023-01-10T16:54:23;4.92;86.21
69546;SHT31;56766;52.260;20.746;2023-01-10T16:56:51;4.89;86.22
69546;SHT31;56766;52.260;20.746;2023-01-10T16:59:17;4.87;86.30
69546;SHT31;56766;52.260;20.746;2023-01-10T17:01:50;4.85;86.25
69546;SHT31;56766;52.260;20.746;2023-01-10T17:04:25;4.82;86.20
69546;SHT31;56766;52.260;20.746;2023-01-10T17:06:55;4.76;86.23
69546;SHT31;56766;52.260;20.746;2023-01-10T17:09:28;4.72;86.30
69546;SHT31;56766;52.260;20.746;2023-01-10T17:12:12;4.68;86.30
69546;SHT31;56766;52.260;20.746;2023-01-10T17:14:43;4.66;86.31
69546;SHT31;56766;52.260;20.746;2023-01-10T17:17:11;4.64;86.26
69546;SHT31;56766;52.260;20.746;2023-01-10T17:19:37;4.60;86.28
69546;SHT31;56766;52.260;20.746;2023-01-10T17:22:06;4.57;86.29
69546;SHT31;56766;52.260;20.746;2023-01-10T17:24:32;4.54;86.30
69546;SHT31;56766;52.260;20.746;2023-01-10T17:26:59;4.51;86.28
69546;SHT31;56766;52.260;20.746;2023-01-10T17:29:26;4.50;86.26
69546;SHT31;56766;52.260;20.746;2023-01-10T17:31:53;4.48;86.25
69546;SHT31;56766;52.260;20.746;2023-01-10T17:34:20;4.43;86.20
69546;SHT31;56766;52.260;20.746;2023-01-10T17:36:47;4.38;86.21
69546;SHT31;56766;52.260;20.746;2023-01-10T17:39:14;4.33;86.29
69546;SHT31;56766;52.260;20.746;2023-01-10T17:41:40;4.27;86.35
69546;SHT31;56766;52.260;20.746;2023-01-10T17:44:07;4.22;86.48
69546;SHT31;56766;52.260;20.746;2023-01-10T17:46:34;4.20;86.50
69546;SHT31;56766;52.260;20.746;2023-01-10T17:49:01;4.15;86.55
69546;SHT31;56766;52.260;20.746;2023-01-10T17:51:28;4.12;86.60
69546;SHT31;56766;52.260;20.746;2023-01-10T17:53:56;4.09;86.72
69546;SHT31;56766;52.260;20.746;2023-01-10T17:56:24;4.09;86.84
69546;SHT31;56766;52.260;20.746;2023-01-10T17:58:51;4.09;86.94
69546;SHT31;56766;52.260;20.746;2023-01-10T18:01:21;4.10;87.00
69546;SHT31;56766;52.260;20.746;2023-01-10T18:03:49;4.13;87.06
69546;SHT31;56766;52.260;20.746;2023-01-10T18:06:18;4.15;87.00